sensor_id;sensor_type;location;lat;lon;timestamp;pressure;altitude;pressure_sealevel;temperature;humidity
35910;BME280;22004;49.120;-0.200;2023-02-02T00:01:50;102854.53;;;9.92;66.07
35910;BME280;22004;49.120;-0.200;2023-02-02T00:04:24;102863.84;;;9.65;67.13
35910;BME280;22004;49.120;-0.200;2023-02-02T00:06:53;102872.56;;;10.01;66.17
35910;BME280;22004;49.120;-0.200;2023-02-02T00:09:19;102884.28;;;9.89;66.33
35910;BME280;22004;49.120;-0.200;2023-02-02T00:11:46;102872.41;;;10.14;65.87
35910;BME280;22004;49.120;-0.200;2023-02-02T00:14:13;102873.31;;;9.92;66.41
35910;BME280;22004;49.120;-0.200;2023-02-02T00:16:43;102864.53;;;10.01;66.30
35910;BME280;22004;49.120;-0.200;2023-02-02T00:19:24;102865.38;;;9.79;66.81
35910;BME280;22004;49.120;-0.200;2023-02-02T00:21:51;102853.88;;;10.10;66.17
35910;BME280;22004;49.120;-0.200;2023-02-02T00:24:17;102850.50;;;9.97;66.46
35910;BME280;22004;49.120;-0.200;2023-02-02T00:26:44;102838.19;;;9.95;66.71
35910;BME280;22004;49.120;-0.200;2023-02-02T00:29:17;102845.16;;;9.64;67.45
35910;BME280;22004;49.120;-0.200;2023-02-02T00:31:43;102844.09;;;9.66;66.78
35910;BME280;22004;49.120;-0.200;2023-02-02T00:34:13;102848.69;;;9.87;66.63
35910;BME280;22004;49.120;-0.200;2023-02-02T00:36:38;102857.81;;;9.95;66.54
35910;BME280;22004;49.120;-0.200;2023-02-02T00:39:04;102860.63;;;9.94;66.53
35910;BME280;22004;49.120;-0.200;2023-02-02T00:41:30;102858.13;;;10.13;66.00
35910;BME280;22004;49.120;-0.200;2023-02-02T00:43:55;102862.69;;;10.01;66.39
35910;BME280;22004;49.120;-0.200;2023-02-02T00:46:39;102860.97;;;9.89;66.61
35910;BME280;22004;49.120;-0.200;2023-02-02T00:49:05;102858.56;;;9.86;66.74
35910;BME280;22004;49.120;-0.200;2023-02-02T00:51:30;102856.84;;;9.96;66.29
35910;BME280;22004;49.120;-0.200;2023-02-02T00:53:56;102846.53;;;9.36;68.44
35910;BME280;22004;49.120;-0.200;2023-02-02T00:56:21;102856.09;;;9.94;66.80
35910;BME280;22004;49.120;-0.200;2023-02-02T00:58:46;102853.34;;;9.62;67.36
35910;BME280;22004;49.120;-0.200;2023-02-02T01:01:16;102849.19;;;9.69;67.47
35910;BME280;22004;49.120;-0.200;2023-02-02T01:03:42;102846.97;;;9.86;67.13
35910;BME280;22004;49.120;-0.200;2023-02-02T01:06:07;102836.38;;;9.73;67.43
35910;BME280;22004;49.120;-0.200;2023-02-02T01:08:33;102838.34;;;9.71;67.25
35910;BME280;22004;49.120;-0.200;2023-02-02T01:10:58;102843.16;;;9.99;66.55
35910;BME280;22004;49.120;-0.200;2023-02-02T01:13:24;102845.50;;;9.93;67.16
35910;BME280;22004;49.120;-0.200;2023-02-02T01:15:54;102836.16;;;9.65;67.80
35910;BME280;22004;49.120;-0.200;2023-02-02T01:18:20;102838.72;;;9.66;67.47
35910;BME280;22004;49.120;-0.200;2023-02-02T01:20:45;102853.34;;;9.84;66.92
35910;BME280;22004;49.120;-0.200;2023-02-02T01:23:10;102852.97;;;9.78;67.70
35910;BME280;22004;49.120;-0.200;2023-02-02T01:25:37;102855.47;;;10.02;66.65
35910;BME280;22004;49.120;-0.200;2023-02-02T01:28:03;102851.16;;;10.22;66.04
35910;BME280;22004;49.120;-0.200;2023-02-02T01:30:28;102867.13;;;9.80;67.62
35910;BME280;22004;49.120;-0.200;2023-02-02T01:32:54;102868.91;;;9.79;67.70
35910;BME280;22004;49.120;-0.200;2023-02-02T01:35:19;102863.31;;;9.49;68.21
35910;BME280;22004;49.120;-0.200;2023-02-02T01:37:44;102868.69;;;9.71;68.07
35910;BME280;22004;49.120;-0.200;2023-02-02T01:40:10;102859.16;;;9.78;67.63
35910;BME280;22004;49.120;-0.200;2023-02-02T01:42:38;102867.22;;;9.90;67.61
35910;BME280;22004;49.120;-0.200;2023-02-02T01:45:12;102867.22;;;9.90;67.38
35910;BME280;22004;49.120;-0.200;2023-02-02T01:47:48;102874.31;;;9.57;68.23
35910;BME280;22004;49.120;-0.200;2023-02-02T01:50:17;102874.78;;;9.73;68.19
35910;BME280;22004;49.120;-0.200;2023-02-02T01:52:46;102880.88;;;9.87;67.45
35910;BME280;22004;49.120;-0.200;2023-02-02T01:55:14;102878.69;;;9.80;67.83
35910;BME280;22004;49.120;-0.200;2023-02-02T02:00:18;102872.00;;;9.75;68.05
35910;BME280;22004;49.120;-0.200;2023-02-02T02:02:51;102859.81;;;9.71;68.20
35910;BME280;22004;49.120;-0.200;2023-02-02T02:05:25;102861.41;;;9.51;69.03
35910;BME280;22004;49.120;-0.200;2023-02-02T02:07:54;102859.19;;;9.67;68.36
35910;BME280;22004;49.120;-0.200;2023-02-02T02:10:20;102856.63;;;9.77;67.86
35910;BME280;22004;49.120;-0.200;2023-02-02T02:12:48;102859.91;;;9.80;67.88
35910;BME280;22004;49.120;-0.200;2023-02-02T02:15:14;102866.09;;;9.92;67.50
35910;BME280;22004;49.120;-0.200;2023-02-02T02:20:55;102867.84;;;9.59;68.56
35910;BME280;22004;49.120;-0.200;2023-02-02T02:32:30;102863.19;;;9.95;67.37
35910;BME280;22004;49.120;-0.200;2023-02-02T02:37:51;102858.59;;;9.75;68.29
35910;BME280;22004;49.120;-0.200;2023-02-02T02:40:39;102853.91;;;9.88;67.76
35910;BME280;22004;49.120;-0.200;2023-02-02T02:43:11;102842.88;;;9.70;68.32
35910;BME280;22004;49.120;-0.200;2023-02-02T02:45:38;102844.31;;;9.86;67.91
35910;BME280;22004;49.120;-0.200;2023-02-02T02:48:03;102827.97;;;9.77;67.91
35910;BME280;22004;49.120;-0.200;2023-02-02T02:50:29;102829.44;;;9.70;68.53
35910;BME280;22004;49.120;-0.200;2023-02-02T02:53:19;102829.53;;;9.91;67.26
35910;BME280;22004;49.120;-0.200;2023-02-02T02:55:56;102833.78;;;10.05;67.12
35910;BME280;22004;49.120;-0.200;2023-02-02T02:58:48;102842.69;;;10.05;66.92
35910;BME280;22004;49.120;-0.200;2023-02-02T03:01:34;102849.13;;;10.03;67.28
35910;BME280;22004;49.120;-0.200;2023-02-02T03:04:18;102855.81;;;10.08;66.81
35910;BME280;22004;49.120;-0.200;2023-02-02T03:06:52;102863.28;;;10.05;66.64
35910;BME280;22004;49.120;-0.200;2023-02-02T03:09:22;102862.69;;;9.79;67.52
35910;BME280;22004;49.120;-0.200;2023-02-02T03:11:49;102861.09;;;9.99;67.14
35910;BME280;22004;49.120;-0.200;2023-02-02T03:14:14;102862.28;;;10.17;66.28
35910;BME280;22004;49.120;-0.200;2023-02-02T03:16:40;102862.16;;;10.30;66.28
35910;BME280;22004;49.120;-0.200;2023-02-02T03:19:06;102862.56;;;10.03;66.78
35910;BME280;22004;49.120;-0.200;2023-02-02T03:21:32;102857.41;;;10.11;66.55
35910;BME280;22004;49.120;-0.200;2023-02-02T03:23:58;102867.66;;;10.17;66.70
35910;BME280;22004;49.120;-0.200;2023-02-02T03:26:23;102858.91;;;9.93;67.17
35910;BME280;22004;49.120;-0.200;2023-02-02T03:28:50;102866.09;;;10.03;67.18
35910;BME280;22004;49.120;-0.200;2023-02-02T03:31:15;102859.13;;;10.12;66.69
35910;BME280;22004;49.120;-0.200;2023-02-02T03:33:41;102854.06;;;9.87;66.53
35910;BME280;22004;49.120;-0.200;2023-02-02T03:36:06;102853.19;;;9.86;67.50
35910;BME280;22004;49.120;-0.200;2023-02-02T03:38:32;102842.53;;;10.07;66.61
35910;BME280;22004;49.120;-0.200;2023-02-02T03:40:57;102849.09;;;10.14;66.51
35910;BME280;22004;49.120;-0.200;2023-02-02T03:43:23;102843.91;;;10.01;66.75
35910;BME280;22004;49.120;-0.200;2023-02-02T03:46:02;102848.03;;;10.05;66.20
35910;BME280;22004;49.120;-0.200;2023-02-02T03:48:29;102854.50;;;10.25;66.23
35910;BME280;22004;49.120;-0.200;2023-02-02T03:50:54;102847.34;;;9.92;66.96
35910;BME280;22004;49.120;-0.200;2023-02-02T03:53:21;102845.16;;;9.86;67.27
35910;BME280;22004;49.120;-0.200;2023-02-02T03:55:46;102852.19;;;10.09;66.55
35910;BME280;22004;49.120;-0.200;2023-02-02T03:58:11;102858.59;;;9.52;67.88
35910;BME280;22004;49.120;-0.200;2023-02-02T04:00:37;102848.31;;;9.91;67.44
35910;BME280;22004;49.120;-0.200;2023-02-02T04:03:03;102848.28;;;10.25;66.58
35910;BME280;22004;49.120;-0.200;2023-02-02T04:05:29;102854.78;;;10.00;67.38
35910;BME280;22004;49.120;-0.200;2023-02-02T04:07:54;102849.88;;;10.05;67.07
35910;BME280;22004;49.120;-0.200;2023-02-02T04:10:19;102846.97;;;9.86;67.64
35910;BME280;22004;49.120;-0.200;2023-02-02T04:12:45;102858.59;;;9.75;68.37
35910;BME280;22004;49.120;-0.200;2023-02-02T04:15:10;102853.50;;;10.15;66.73
35910;BME280;22004;49.120;-0.200;2023-02-02T04:17:37;102848.31;;;9.69;68.42
35910;BME280;22004;49.120;-0.200;2023-02-02T04:20:03;102856.28;;;10.14;67.20
35910;BME280;22004;49.120;-0.200;2023-02-02T04:22:29;102848.19;;;9.93;67.71
35910;BME280;22004;49.120;-0.200;2023-02-02T04:24:55;102854.50;;;10.03;67.08
35910;BME280;22004;49.120;-0.200;2023-02-02T04:27:20;102863.47;;;9.70;68.54
35910;BME280;22004;49.120;-0.200;2023-02-02T04:29:45;102855.84;;;9.97;67.51
35910;BME280;22004;49.120;-0.200;2023-02-02T04:32:13;102858.66;;;10.07;67.24
35910;BME280;22004;49.120;-0.200;2023-02-02T04:34:38;102859.16;;;10.01;67.37
35910;BME280;22004;49.120;-0.200;2023-02-02T04:37:04;102853.28;;;10.07;67.33
35910;BME280;22004;49.120;-0.200;2023-02-02T04:39:29;102856.72;;;9.98;67.57
35910;BME280;22004;49.120;-0.200;2023-02-02T04:41:55;102860.50;;;9.95;67.84
35910;BME280;22004;49.120;-0.200;2023-02-02T04:44:20;102857.16;;;10.14;67.12
35910;BME280;22004;49.120;-0.200;2023-02-02T04:46:45;102859.56;;;9.63;69.01
35910;BME280;22004;49.120;-0.200;2023-02-02T04:49:11;102857.78;;;10.06;67.39
35910;BME280;22004;49.120;-0.200;2023-02-02T04:51:38;102859.19;;;9.90;67.83
35910;BME280;22004;49.120;-0.200;2023-02-02T04:54:04;102864.75;;;9.98;67.64
35910;BME280;22004;49.120;-0.200;2023-02-02T04:56:29;102865.28;;;9.58;68.76
35910;BME280;22004;49.120;-0.200;2023-02-02T04:58:54;102872.59;;;9.67;68.78
35910;BME280;22004;49.120;-0.200;2023-02-02T05:01:21;102877.94;;;10.01;67.87
35910;BME280;22004;49.120;-0.200;2023-02-02T05:03:47;102875.00;;;9.93;67.84
35910;BME280;22004;49.120;-0.200;2023-02-02T05:06:13;102879.19;;;9.86;68.06
35910;BME280;22004;49.120;-0.200;2023-02-02T05:08:39;102876.50;;;9.86;68.21
35910;BME280;22004;49.120;-0.200;2023-02-02T05:11:14;102875.34;;;9.99;67.71
35910;BME280;22004;49.120;-0.200;2023-02-02T05:13:45;102887.72;;;9.91;68.30
35910;BME280;22004;49.120;-0.200;2023-02-02T05:16:11;102885.22;;;10.21;67.02
35910;BME280;22004;49.120;-0.200;2023-02-02T05:18:36;102885.13;;;9.89;68.06
35910;BME280;22004;49.120;-0.200;2023-02-02T05:21:02;102874.41;;;9.89;68.23
35910;BME280;22004;49.120;-0.200;2023-02-02T05:23:28;102879.31;;;9.73;69.00
35910;BME280;22004;49.120;-0.200;2023-02-02T05:25:54;102884.88;;;10.15;67.54
35910;BME280;22004;49.120;-0.200;2023-02-02T05:28:20;102881.88;;;9.86;68.47
35910;BME280;22004;49.120;-0.200;2023-02-02T05:30:46;102881.72;;;9.98;68.03
35910;BME280;22004;49.120;-0.200;2023-02-02T05:33:11;102877.69;;;9.93;68.07
35910;BME280;22004;49.120;-0.200;2023-02-02T05:35:37;102889.53;;;9.79;68.60
35910;BME280;22004;49.120;-0.200;2023-02-02T05:38:02;102885.63;;;9.83;68.28
35910;BME280;22004;49.120;-0.200;2023-02-02T05:40:28;102878.31;;;9.96;67.98
35910;BME280;22004;49.120;-0.200;2023-02-02T05:42:53;102884.28;;;9.89;68.40
35910;BME280;22004;49.120;-0.200;2023-02-02T05:45:19;102892.47;;;9.76;68.93
35910;BME280;22004;49.120;-0.200;2023-02-02T05:47:44;102883.69;;;9.74;68.67
35910;BME280;22004;49.120;-0.200;2023-02-02T05:50:09;102893.06;;;9.68;68.35
35910;BME280;22004;49.120;-0.200;2023-02-02T05:52:38;102896.72;;;9.78;68.46
35910;BME280;22004;49.120;-0.200;2023-02-02T05:55:06;102900.53;;;9.76;68.49
35910;BME280;22004;49.120;-0.200;2023-02-02T05:57:31;102902.97;;;9.90;67.90
35910;BME280;22004;49.120;-0.200;2023-02-02T05:59:56;102903.06;;;9.89;67.98
35910;BME280;22004;49.120;-0.200;2023-02-02T06:02:22;102902.34;;;9.53;68.72
35910;BME280;22004;49.120;-0.200;2023-02-02T06:04:47;102907.97;;;9.72;68.55
35910;BME280;22004;49.120;-0.200;2023-02-02T06:07:12;102905.88;;;9.87;68.36
35910;BME280;22004;49.120;-0.200;2023-02-02T06:09:38;102909.03;;;9.92;67.62
35910;BME280;22004;49.120;-0.200;2023-02-02T06:12:04;102903.81;;;9.91;67.87
35910;BME280;22004;49.120;-0.200;2023-02-02T06:14:29;102906.09;;;10.06;67.18
35910;BME280;22004;49.120;-0.200;2023-02-02T06:16:55;102904.41;;;9.83;67.68
35910;BME280;22004;49.120;-0.200;2023-02-02T06:19:20;102899.28;;;9.91;67.86
35910;BME280;22004;49.120;-0.200;2023-02-02T06:21:45;102913.09;;;9.75;67.83
35910;BME280;22004;49.120;-0.200;2023-02-02T06:24:11;102911.75;;;9.70;67.72
35910;BME280;22004;49.120;-0.200;2023-02-02T06:26:36;102907.34;;;9.80;67.31
35910;BME280;22004;49.120;-0.200;2023-02-02T06:29:01;102910.28;;;9.77;67.64
35910;BME280;22004;49.120;-0.200;2023-02-02T06:31:27;102903.31;;;9.86;67.58
35910;BME280;22004;49.120;-0.200;2023-02-02T06:33:57;102902.34;;;9.75;67.47
35910;BME280;22004;49.120;-0.200;2023-02-02T06:36:24;102897.09;;;9.63;68.04
35910;BME280;22004;49.120;-0.200;2023-02-02T06:38:50;102902.56;;;9.83;67.35
35910;BME280;22004;49.120;-0.200;2023-02-02T06:41:17;102903.91;;;9.89;67.08
35910;BME280;22004;49.120;-0.200;2023-02-02T06:43:45;102906.97;;;9.73;68.41
35910;BME280;22004;49.120;-0.200;2023-02-02T06:46:11;102916.84;;;9.50;68.90
35910;BME280;22004;49.120;-0.200;2023-02-02T06:48:36;102916.38;;;9.68;67.94
35910;BME280;22004;49.120;-0.200;2023-02-02T06:51:02;102913.44;;;9.93;67.92
35910;BME280;22004;49.120;-0.200;2023-02-02T06:53:27;102914.53;;;9.91;67.89
35910;BME280;22004;49.120;-0.200;2023-02-02T06:55:58;102920.78;;;9.80;68.06
35910;BME280;22004;49.120;-0.200;2023-02-02T06:58:30;102921.34;;;9.83;68.14
35910;BME280;22004;49.120;-0.200;2023-02-02T07:01:01;102913.69;;;9.90;67.98
35910;BME280;22004;49.120;-0.200;2023-02-02T07:03:28;102917.94;;;9.93;67.77
35910;BME280;22004;49.120;-0.200;2023-02-02T07:05:54;102916.47;;;9.89;67.81
35910;BME280;22004;49.120;-0.200;2023-02-02T07:08:19;102916.59;;;9.87;68.00
35910;BME280;22004;49.120;-0.200;2023-02-02T07:10:45;102914.28;;;10.05;67.21
35910;BME280;22004;49.120;-0.200;2023-02-02T07:13:10;102914.75;;;9.99;67.52
35910;BME280;22004;49.120;-0.200;2023-02-02T07:15:39;102915.88;;;9.96;67.60
35910;BME280;22004;49.120;-0.200;2023-02-02T07:18:04;102910.75;;;9.93;66.87
35910;BME280;22004;49.120;-0.200;2023-02-02T07:20:30;102904.66;;;9.91;67.53
35910;BME280;22004;49.120;-0.200;2023-02-02T07:22:55;102907.06;;;10.17;67.03
35910;BME280;22004;49.120;-0.200;2023-02-02T07:25:21;102920.47;;;10.28;66.91
35910;BME280;22004;49.120;-0.200;2023-02-02T07:27:46;102920.13;;;10.10;66.79
35910;BME280;22004;49.120;-0.200;2023-02-02T07:30:12;102925.13;;;10.15;66.77
35910;BME280;22004;49.120;-0.200;2023-02-02T07:32:38;102922.03;;;10.19;66.59
35910;BME280;22004;49.120;-0.200;2023-02-02T07:35:04;102937.22;;;9.98;67.50
35910;BME280;22004;49.120;-0.200;2023-02-02T07:37:29;102934.38;;;10.33;66.43
35910;BME280;22004;49.120;-0.200;2023-02-02T07:39:54;102934.97;;;10.14;66.77
35910;BME280;22004;49.120;-0.200;2023-02-02T07:42:20;102945.25;;;9.98;67.22
35910;BME280;22004;49.120;-0.200;2023-02-02T07:44:45;102942.56;;;9.98;66.44
35910;BME280;22004;49.120;-0.200;2023-02-02T07:47:10;102934.50;;;10.31;66.62
35910;BME280;22004;49.120;-0.200;2023-02-02T07:49:36;102940.28;;;10.59;65.65
35910;BME280;22004;49.120;-0.200;2023-02-02T07:52:01;102947.72;;;10.67;65.47
35910;BME280;22004;49.120;-0.200;2023-02-02T07:54:26;102951.09;;;10.37;65.86
35910;BME280;22004;49.120;-0.200;2023-02-02T07:56:51;102956.56;;;10.46;65.89
35910;BME280;22004;49.120;-0.200;2023-02-02T07:59:17;102962.94;;;10.34;66.66
35910;BME280;22004;49.120;-0.200;2023-02-02T08:01:42;102962.81;;;10.02;66.98
35910;BME280;22004;49.120;-0.200;2023-02-02T08:04:08;102966.13;;;10.28;66.17
35910;BME280;22004;49.120;-0.200;2023-02-02T08:06:36;102967.59;;;9.76;67.99
35910;BME280;22004;49.120;-0.200;2023-02-02T08:09:04;102963.94;;;10.10;67.69
35910;BME280;22004;49.120;-0.200;2023-02-02T08:11:32;102975.03;;;10.06;67.31
35910;BME280;22004;49.120;-0.200;2023-02-02T08:14:00;102981.84;;;9.88;68.00
35910;BME280;22004;49.120;-0.200;2023-02-02T08:16:26;102987.81;;;10.02;67.59
35910;BME280;22004;49.120;-0.200;2023-02-02T08:18:52;102990.41;;;10.38;66.49
35910;BME280;22004;49.120;-0.200;2023-02-02T08:21:21;102987.72;;;10.15;67.28
35910;BME280;22004;49.120;-0.200;2023-02-02T08:23:47;102987.47;;;10.07;67.57
35910;BME280;22004;49.120;-0.200;2023-02-02T08:28:38;102991.25;;;10.16;67.14
35910;BME280;22004;49.120;-0.200;2023-02-02T08:31:14;102985.41;;;10.10;67.00
35910;BME280;22004;49.120;-0.200;2023-02-02T08:33:40;102996.63;;;10.16;67.49
35910;BME280;22004;49.120;-0.200;2023-02-02T08:36:15;102992.34;;;10.47;66.44
35910;BME280;22004;49.120;-0.200;2023-02-02T08:38:41;103002.72;;;10.18;66.60
35910;BME280;22004;49.120;-0.200;2023-02-02T08:41:11;102992.44;;;10.23;67.32
35910;BME280;22004;49.120;-0.200;2023-02-02T08:43:37;103000.50;;;9.89;67.40
35910;BME280;22004;49.120;-0.200;2023-02-02T08:46:03;103008.34;;;10.37;66.58
35910;BME280;22004;49.120;-0.200;2023-02-02T08:48:29;103006.25;;;10.52;66.07
35910;BME280;22004;49.120;-0.200;2023-02-02T08:50:56;103007.50;;;10.37;66.28
35910;BME280;22004;49.120;-0.200;2023-02-02T08:53:22;103006.38;;;10.17;66.52
35910;BME280;22004;49.120;-0.200;2023-02-02T08:55:48;103009.66;;;10.09;66.88
35910;BME280;22004;49.120;-0.200;2023-02-02T08:58:21;103026.16;;;10.38;66.74
35910;BME280;22004;49.120;-0.200;2023-02-02T09:00:46;103018.25;;;10.25;66.61
35910;BME280;22004;49.120;-0.200;2023-02-02T09:03:15;103022.88;;;10.34;66.76
35910;BME280;22004;49.120;-0.200;2023-02-02T09:05:40;103019.22;;;10.35;66.86
35910;BME280;22004;49.120;-0.200;2023-02-02T09:08:06;103023.94;;;9.98;67.47
35910;BME280;22004;49.120;-0.200;2023-02-02T09:10:34;103021.41;;;10.30;66.87
35910;BME280;22004;49.120;-0.200;2023-02-02T09:13:00;103032.25;;;10.29;66.96
35910;BME280;22004;49.120;-0.200;2023-02-02T09:15:25;103037.38;;;10.21;67.06
35910;BME280;22004;49.120;-0.200;2023-02-02T09:17:51;103037.25;;;10.11;67.63
35910;BME280;22004;49.120;-0.200;2023-02-02T09:20:16;103042.75;;;10.32;66.83
35910;BME280;22004;49.120;-0.200;2023-02-02T09:22:43;103047.44;;;9.83;68.64
35910;BME280;22004;49.120;-0.200;2023-02-02T09:25:11;103045.53;;;10.08;68.09
35910;BME280;22004;49.120;-0.200;2023-02-02T09:27:37;103052.41;;;10.34;67.01
35910;BME280;22004;49.120;-0.200;2023-02-02T09:30:06;103052.63;;;10.20;67.31
35910;BME280;22004;49.120;-0.200;2023-02-02T09:32:31;103069.97;;;10.27;67.44
35910;BME280;22004;49.120;-0.200;2023-02-02T09:34:57;103062.53;;;10.31;67.30
35910;BME280;22004;49.120;-0.200;2023-02-02T09:37:22;103072.22;;;9.76;68.79
35910;BME280;22004;49.120;-0.200;2023-02-02T09:39:47;103075.63;;;9.89;68.76
35910;BME280;22004;49.120;-0.200;2023-02-02T09:47:23;103094.03;;;10.40;66.79
35910;BME280;22004;49.120;-0.200;2023-02-02T09:54:55;103089.63;;;10.50;66.48
35910;BME280;22004;49.120;-0.200;2023-02-02T09:57:27;103088.19;;;10.35;67.16
35910;BME280;22004;49.120;-0.200;2023-02-02T09:59:55;103090.97;;;10.45;67.08
35910;BME280;22004;49.120;-0.200;2023-02-02T10:02:26;103091.34;;;10.51;67.06
35910;BME280;22004;49.120;-0.200;2023-02-02T10:05:02;103090.81;;;10.80;66.01
35910;BME280;22004;49.120;-0.200;2023-02-02T10:07:35;103086.31;;;10.58;66.30
35910;BME280;22004;49.120;-0.200;2023-02-02T10:10:03;103082.78;;;10.57;66.65
35910;BME280;22004;49.120;-0.200;2023-02-02T10:12:41;103086.44;;;10.56;66.70
35910;BME280;22004;49.120;-0.200;2023-02-02T10:15:20;103089.38;;;10.65;66.39
35910;BME280;22004;49.120;-0.200;2023-02-02T10:17:54;103093.66;;;10.56;67.12
35910;BME280;22004;49.120;-0.200;2023-02-02T10:25:49;103106.25;;;10.55;67.04
35910;BME280;22004;49.120;-0.200;2023-02-02T10:28:18;103108.28;;;10.63;66.92
35910;BME280;22004;49.120;-0.200;2023-02-02T10:30:46;103113.19;;;10.47;67.82
35910;BME280;22004;49.120;-0.200;2023-02-02T10:33:24;103107.91;;;10.68;66.87
35910;BME280;22004;49.120;-0.200;2023-02-02T10:44:44;103112.69;;;10.64;66.93
35910;BME280;22004;49.120;-0.200;2023-02-02T10:47:19;103108.78;;;10.57;67.27
35910;BME280;22004;49.120;-0.200;2023-02-02T10:49:54;103112.44;;;10.67;66.54
35910;BME280;22004;49.120;-0.200;2023-02-02T10:52:30;103116.97;;;10.67;66.73
35910;BME280;22004;49.120;-0.200;2023-02-02T11:00:45;103111.97;;;10.51;67.19
35910;BME280;22004;49.120;-0.200;2023-02-02T11:03:13;103102.94;;;10.52;67.83
35910;BME280;22004;49.120;-0.200;2023-02-02T11:05:40;103102.19;;;10.61;66.69
35910;BME280;22004;49.120;-0.200;2023-02-02T11:10:57;103096.31;;;10.78;66.34
35910;BME280;22004;49.120;-0.200;2023-02-02T11:13:28;103091.44;;;10.72;67.22
35910;BME280;22004;49.120;-0.200;2023-02-02T11:18:38;103090.00;;;10.57;67.20
35910;BME280;22004;49.120;-0.200;2023-02-02T11:21:16;103086.66;;;10.87;66.34
35910;BME280;22004;49.120;-0.200;2023-02-02T11:24:02;103090.69;;;10.81;66.51
35910;BME280;22004;49.120;-0.200;2023-02-02T11:26:54;103092.41;;;10.82;66.24
35910;BME280;22004;49.120;-0.200;2023-02-02T11:31:48;103077.22;;;10.93;65.77
35910;BME280;22004;49.120;-0.200;2023-02-02T11:37:02;103077.38;;;10.80;65.20
35910;BME280;22004;49.120;-0.200;2023-02-02T11:39:34;103077.38;;;10.80;65.34
35910;BME280;22004;49.120;-0.200;2023-02-02T11:42:11;103083.22;;;10.96;65.54
35910;BME280;22004;49.120;-0.200;2023-02-02T11:44:39;103080.00;;;11.02;65.18
35910;BME280;22004;49.120;-0.200;2023-02-02T11:47:17;103082.25;;;10.86;65.66
35910;BME280;22004;49.120;-0.200;2023-02-02T11:49:43;103078.06;;;11.04;65.51
35910;BME280;22004;49.120;-0.200;2023-02-02T11:52:16;103068.41;;;11.02;65.71
35910;BME280;22004;49.120;-0.200;2023-02-02T11:54:46;103064.53;;;11.27;64.55
35910;BME280;22004;49.120;-0.200;2023-02-02T11:57:17;103061.13;;;11.25;64.85
35910;BME280;22004;49.120;-0.200;2023-02-02T11:59:44;103062.50;;;11.19;64.91
35910;BME280;22004;49.120;-0.200;2023-02-02T12:04:46;103061.56;;;11.09;65.41
35910;BME280;22004;49.120;-0.200;2023-02-02T12:07:26;103063.13;;;11.11;65.11
35910;BME280;22004;49.120;-0.200;2023-02-02T12:10:00;103063.00;;;11.13;64.66
35910;BME280;22004;49.120;-0.200;2023-02-02T12:47:39;103049.94;;;11.08;62.96
35910;BME280;22004;49.120;-0.200;2023-02-02T12:53:04;103046.25;;;11.42;62.14
35910;BME280;22004;49.120;-0.200;2023-02-02T13:10:06;103032.19;;;11.38;62.50
35910;BME280;22004;49.120;-0.200;2023-02-02T13:12:37;103031.75;;;11.33;63.19
35910;BME280;22004;49.120;-0.200;2023-02-02T13:15:11;103030.19;;;11.51;61.96
35910;BME280;22004;49.120;-0.200;2023-02-02T13:17:42;103035.72;;;11.50;63.16
35910;BME280;22004;49.120;-0.200;2023-02-02T13:20:35;103029.00;;;11.44;63.18
35910;BME280;22004;49.120;-0.200;2023-02-02T13:23:17;103020.53;;;11.28;63.23
35910;BME280;22004;49.120;-0.200;2023-02-02T13:25:47;103013.38;;;11.38;62.69
35910;BME280;22004;49.120;-0.200;2023-02-02T13:28:29;103013.50;;;11.36;63.26
35910;BME280;22004;49.120;-0.200;2023-02-02T13:30:58;103010.22;;;11.33;63.63
35910;BME280;22004;49.120;-0.200;2023-02-02T13:33:31;103007.44;;;11.34;63.19
35910;BME280;22004;49.120;-0.200;2023-02-02T13:36:12;103009.13;;;11.35;62.63
35910;BME280;22004;49.120;-0.200;2023-02-02T13:38:40;103005.97;;;11.30;63.41
35910;BME280;22004;49.120;-0.200;2023-02-02T13:41:08;103011.06;;;11.33;63.78
35910;BME280;22004;49.120;-0.200;2023-02-02T13:46:41;103014.97;;;11.20;63.60
35910;BME280;22004;49.120;-0.200;2023-02-02T13:49:11;103019.13;;;11.33;63.64
35910;BME280;22004;49.120;-0.200;2023-02-02T13:57:37;103011.81;;;11.15;64.18
35910;BME280;22004;49.120;-0.200;2023-02-02T14:02:46;103019.59;;;11.18;64.43
35910;BME280;22004;49.120;-0.200;2023-02-02T14:07:59;103020.22;;;10.78;65.42
35910;BME280;22004;49.120;-0.200;2023-02-02T14:10:31;103016.97;;;11.06;65.19
35910;BME280;22004;49.120;-0.200;2023-02-02T14:13:23;103010.97;;;11.03;65.19
35910;BME280;22004;49.120;-0.200;2023-02-02T14:16:21;103012.84;;;11.23;65.09
35910;BME280;22004;49.120;-0.200;2023-02-02T14:26:58;103008.38;;;11.33;64.12
35910;BME280;22004;49.120;-0.200;2023-02-02T14:34:44;103011.13;;;11.22;64.58
35910;BME280;22004;49.120;-0.200;2023-02-02T14:37:31;103018.13;;;11.13;64.89
35910;BME280;22004;49.120;-0.200;2023-02-02T14:40:07;103013.63;;;11.14;64.54
35910;BME280;22004;49.120;-0.200;2023-02-02T14:43:02;103006.16;;;11.18;65.34
35910;BME280;22004;49.120;-0.200;2023-02-02T14:48:48;103018.53;;;11.09;65.05
35910;BME280;22004;49.120;-0.200;2023-02-02T14:51:32;103015.72;;;11.10;65.30
35910;BME280;22004;49.120;-0.200;2023-02-02T14:54:18;103024.41;;;11.03;65.52
35910;BME280;22004;49.120;-0.200;2023-02-02T14:56:51;103030.31;;;10.97;65.70
35910;BME280;22004;49.120;-0.200;2023-02-02T14:59:28;103029.41;;;11.07;65.29
35910;BME280;22004;49.120;-0.200;2023-02-02T15:02:12;103035.94;;;11.26;64.72
35910;BME280;22004;49.120;-0.200;2023-02-02T15:04:38;103041.47;;;11.13;65.33
35910;BME280;22004;49.120;-0.200;2023-02-02T15:07:36;103038.63;;;10.94;65.53
35910;BME280;22004;49.120;-0.200;2023-02-02T15:13:13;103043.50;;;11.00;65.68
35910;BME280;22004;49.120;-0.200;2023-02-02T15:15:40;103056.72;;;10.92;66.00
35910;BME280;22004;49.120;-0.200;2023-02-02T15:18:29;103044.34;;;11.00;66.11
35910;BME280;22004;49.120;-0.200;2023-02-02T15:20:59;103045.69;;;11.06;65.93
35910;BME280;22004;49.120;-0.200;2023-02-02T15:23:37;103053.41;;;10.99;66.17
35910;BME280;22004;49.120;-0.200;2023-02-02T15:26:27;103045.25;;;10.90;66.76